createdAt,value
2019-04-16T00:00:35.848Z,68.12
2019-04-16T00:03:12.133Z,60.98
2019-04-16T00:05:47.246Z,56.65
2019-04-16T00:08:30.383Z,58.20
2019-04-16T00:11:17.666Z,42.08
2019-04-16T00:13:52.119Z,53.13
2019-04-16T00:16:25.339Z,52.10
2019-04-16T00:19:04.380Z,46.28
2019-04-16T00:21:45.491Z,43.15
2019-04-16T00:24:19.641Z,36.83
2019-04-16T00:26:52.358Z,53.30
2019-04-16T00:31:59.458Z,44.70
2019-04-16T00:34:31.816Z,48.10
2019-04-16T00:37:04.430Z,38.73
2019-04-16T00:39:37.874Z,50.20
2019-04-16T00:42:10.342Z,48.45
2019-04-16T00:44:43.412Z,51.55
2019-04-16T00:49:47.978Z,49.70
2019-04-16T00:52:20.617Z,50.25
2019-04-16T00:54:53.376Z,39.35
2019-04-16T00:57:25.998Z,40.67
2019-04-16T01:00:03.312Z,49.33
2019-04-16T01:02:36.428Z,48.15
2019-04-16T01:07:40.638Z,40.98
2019-04-16T01:10:26.835Z,43.05
2019-04-16T01:12:59.659Z,38.35
2019-04-16T01:15:35.183Z,42.70
2019-04-16T01:18:08.008Z,36.70
2019-04-16T01:20:44.608Z,44.85
2019-04-16T01:23:17.785Z,38.05
2019-04-16T01:25:55.361Z,42.50
2019-04-16T01:28:33.390Z,39.10
2019-04-16T01:31:12.700Z,46.80
2019-04-16T01:33:48.752Z,43.95
2019-04-16T01:36:22.949Z,40.73
2019-04-16T01:39:14.813Z,43.85
2019-04-16T01:41:34.998Z,30.50
2019-04-16T01:44:08.445Z,34.58
2019-04-16T01:46:42.217Z,37.98
2019-04-16T01:49:15.162Z,35.60
2019-04-16T01:51:48.564Z,35.92
2019-04-16T01:57:15.016Z,30.48
2019-04-16T02:02:19.559Z,26.23
2019-04-16T02:04:53.448Z,29.50
2019-04-16T02:07:27.932Z,28.98
2019-04-16T02:10:00.763Z,18.67
2019-04-16T02:15:08.515Z,17.90
2019-04-16T02:17:41.064Z,14.10
2019-04-16T02:20:16.126Z,21.82
2019-04-16T02:22:50.123Z,15.03
2019-04-16T02:25:23.005Z,16.02
2019-04-16T02:27:58.954Z,17.25
2019-04-16T02:30:39.443Z,14.05
2019-04-16T02:33:11.141Z,13.38
2019-04-16T02:35:43.746Z,16.73
2019-04-16T02:38:16.582Z,12.00
2019-04-16T02:40:53.771Z,12.23
2019-04-16T02:43:26.529Z,14.35
2019-04-16T02:45:59.061Z,18.52
2019-04-16T02:48:31.896Z,10.93
2019-04-16T02:51:12.019Z,12.68
2019-04-16T02:53:58.674Z,11.97
2019-04-16T02:56:51.471Z,13.35
2019-04-16T02:59:36.024Z,14.20
2019-04-16T03:02:12.557Z,12.05
2019-04-16T03:04:50.023Z,15.53
2019-04-16T03:07:22.986Z,14.78
2019-04-16T03:12:28.363Z,13.80
2019-04-16T03:15:02.479Z,20.08
2019-04-16T03:17:42.717Z,11.35
2019-04-16T03:20:20.888Z,10.18
2019-04-16T03:22:54.866Z,12.45
2019-04-16T03:25:27.957Z,11.10
2019-04-16T03:28:00.431Z,12.28
2019-04-16T03:30:40.390Z,20.37
2019-04-16T03:33:12.381Z,12.88
2019-04-16T03:35:57.621Z,13.30
2019-04-16T03:38:29.839Z,16.60
2019-04-16T03:41:05.270Z,8.53
2019-04-16T03:43:37.712Z,10.18
2019-04-16T03:46:12.794Z,11.68
2019-04-16T03:48:44.145Z,7.00
2019-04-16T03:51:17.082Z,8.18
2019-04-16T03:53:50.361Z,9.35
2019-04-16T03:56:23.484Z,6.40
2019-04-16T03:58:56.769Z,8.13
2019-04-16T04:01:30.055Z,7.62
2019-04-16T04:04:02.490Z,11.48
2019-04-16T04:06:36.559Z,8.88
2019-04-16T04:09:09.570Z,16.15
2019-04-16T04:11:42.893Z,9.30
2019-04-16T04:14:22.379Z,9.25
2019-04-16T04:16:50.989Z,9.73
2019-04-16T04:22:03.680Z,9.85
2019-04-16T04:24:36.756Z,10.25
2019-04-16T04:29:46.318Z,11.15
2019-04-16T04:32:18.614Z,12.07
2019-04-16T04:34:52.726Z,9.35
2019-04-16T04:37:30.983Z,8.95
2019-04-16T04:40:06.578Z,6.95
2019-04-16T04:42:51.732Z,10.48
2019-04-16T04:45:27.451Z,9.93
2019-04-16T04:48:00.378Z,6.45
2019-04-16T04:50:35.419Z,10.72
2019-04-16T04:53:07.320Z,8.40
2019-04-16T04:55:39.902Z,12.68
2019-04-16T04:58:12.337Z,10.35
2019-04-16T05:00:45.122Z,5.80
2019-04-16T05:03:33.882Z,6.03
2019-04-16T05:06:20.010Z,5.75
2019-04-16T05:08:52.446Z,6.53
2019-04-16T05:11:25.207Z,9.10
2019-04-16T05:13:58.618Z,6.60
2019-04-16T05:19:04.951Z,9.50
2019-04-16T05:21:38.390Z,8.80
2019-04-16T05:26:42.964Z,7.50
2019-04-16T05:29:17.514Z,11.50
2019-04-16T05:31:50.177Z,9.08
2019-04-16T05:34:23.762Z,10.88
2019-04-16T05:36:58.737Z,7.33
2019-04-16T05:39:31.836Z,6.20
2019-04-16T05:42:04.529Z,11.18
2019-04-16T05:44:37.755Z,12.58
2019-04-16T05:47:16.767Z,9.15
2019-04-16T05:49:49.100Z,12.05
2019-04-16T05:52:22.541Z,14.45
2019-04-16T05:55:17.945Z,9.58
2019-04-16T05:57:50.443Z,12.55
2019-04-16T06:00:24.176Z,7.40
2019-04-16T06:02:57.000Z,9.38
2019-04-16T06:08:12.089Z,6.12
2019-04-16T06:10:49.962Z,6.50
2019-04-16T06:13:29.610Z,7.42
2019-04-16T06:16:09.453Z,5.30
2019-04-16T06:19:04.043Z,6.55
2019-04-16T06:21:56.698Z,4.22
2019-04-16T06:24:46.623Z,6.45
2019-04-16T06:27:35.948Z,10.28
2019-04-16T06:30:26.516Z,11.97
2019-04-16T06:33:00.763Z,9.25
2019-04-16T06:35:47.787Z,8.83
2019-04-16T06:38:24.855Z,6.70
2019-04-16T06:41:07.906Z,8.38
2019-04-16T06:43:58.353Z,9.95
2019-04-16T06:46:57.097Z,7.05
2019-04-16T06:49:55.998Z,10.80
2019-04-16T06:52:38.676Z,9.00
2019-04-16T06:55:15.681Z,7.85
2019-04-16T06:58:05.759Z,7.65
2019-04-16T07:00:45.519Z,14.68
2019-04-16T07:03:34.410Z,7.90
2019-04-16T07:06:24.760Z,14.73
2019-04-16T07:09:11.008Z,10.05
2019-04-16T07:11:54.329Z,5.83
2019-04-16T07:14:20.140Z,5.00
2019-04-16T07:16:52.403Z,3.77
2019-04-16T07:19:26.369Z,9.43
2019-04-16T07:21:59.672Z,5.97
2019-04-16T07:24:37.395Z,4.03
2019-04-16T07:27:11.713Z,5.37
2019-04-16T07:29:51.527Z,8.65
2019-04-16T07:32:43.647Z,7.85
2019-04-16T07:35:17.331Z,7.83
2019-04-16T07:38:04.977Z,9.75
2019-04-16T07:40:52.075Z,13.45
2019-04-16T07:43:42.015Z,8.00
2019-04-16T07:46:34.574Z,6.40
2019-04-16T07:49:15.521Z,13.85
2019-04-16T07:51:49.980Z,8.30
2019-04-16T07:54:39.917Z,9.38
2019-04-16T07:57:13.275Z,15.85
2019-04-16T07:59:47.675Z,17.07
2019-04-16T08:02:22.309Z,10.50
2019-04-16T08:04:54.597Z,12.85
2019-04-16T08:07:27.096Z,11.70
2019-04-16T08:10:03.359Z,14.78
2019-04-16T08:12:42.087Z,11.28
2019-04-16T08:15:15.379Z,20.17
2019-04-16T08:17:47.941Z,13.95
2019-04-16T08:20:21.229Z,14.70
2019-04-16T08:22:55.988Z,14.35
2019-04-16T08:25:33.547Z,17.45
2019-04-16T08:28:06.903Z,18.32
2019-04-16T08:30:39.502Z,15.98
2019-04-16T08:33:12.292Z,19.75
2019-04-16T08:35:45.484Z,15.05
2019-04-16T08:38:19.112Z,19.00
2019-04-16T08:40:54.308Z,18.70
2019-04-16T08:43:31.708Z,20.70
2019-04-16T08:46:04.238Z,16.02
2019-04-16T08:48:36.799Z,18.70
2019-04-16T08:51:09.294Z,24.65
2019-04-16T08:53:43.805Z,16.60
2019-04-16T08:56:16.521Z,18.85
2019-04-16T08:58:49.314Z,15.90
2019-04-16T09:01:23.722Z,18.87
2019-04-16T09:04:01.535Z,14.80
2019-04-16T09:06:31.079Z,13.30
2019-04-16T09:09:12.422Z,17.02
2019-04-16T09:11:41.867Z,15.28
2019-04-16T09:14:16.831Z,12.47
2019-04-16T09:16:53.860Z,14.30
2019-04-16T09:19:28.484Z,17.87
2019-04-16T09:22:02.130Z,17.35
2019-04-16T09:24:51.475Z,16.20
2019-04-16T09:27:31.038Z,16.17
2019-04-16T09:30:16.372Z,19.85
2019-04-16T09:32:45.169Z,19.07
2019-04-16T09:35:25.657Z,20.50
2019-04-16T09:37:59.435Z,18.48
2019-04-16T09:40:49.545Z,17.10
2019-04-16T09:43:30.361Z,18.65
2019-04-16T09:46:10.088Z,13.85
2019-04-16T09:48:38.573Z,19.35
2019-04-16T09:51:11.378Z,16.95
2019-04-16T09:53:45.121Z,19.90
2019-04-16T09:59:15.816Z,22.70
2019-04-16T10:01:47.651Z,19.95
2019-04-16T10:04:22.769Z,21.12
2019-04-16T10:06:55.987Z,22.87
2019-04-16T10:09:29.468Z,18.07
2019-04-16T10:14:33.786Z,30.35
2019-04-16T10:17:08.638Z,19.85
2019-04-16T10:19:43.250Z,29.40
2019-04-16T10:22:17.320Z,27.40
2019-04-16T10:25:09.322Z,22.17
2019-04-16T10:27:43.337Z,26.30
2019-04-16T10:30:24.223Z,25.48
2019-04-16T10:32:56.952Z,28.15
2019-04-16T10:35:29.208Z,35.40
2019-04-16T10:38:03.045Z,30.77
2019-04-16T10:40:38.231Z,35.08
2019-04-16T10:43:18.356Z,25.40
2019-04-16T10:45:59.269Z,24.20
2019-04-16T10:48:39.227Z,24.07
2019-04-16T10:51:15.532Z,28.30
2019-04-16T10:53:51.826Z,37.20
2019-04-16T10:56:26.074Z,29.25
2019-04-16T10:59:05.292Z,35.70
2019-04-16T11:01:41.369Z,39.03
2019-04-16T11:04:27.604Z,36.95
2019-04-16T11:07:03.950Z,32.67
2019-04-16T11:09:39.248Z,21.65
2019-04-16T11:12:14.360Z,23.47
2019-04-16T11:14:47.827Z,22.30
2019-04-16T11:17:25.985Z,27.75
2019-04-16T11:20:04.454Z,27.22
2019-04-16T11:22:43.893Z,28.35
2019-04-16T11:25:21.303Z,29.30
2019-04-16T11:27:54.579Z,29.95
2019-04-16T11:30:34.143Z,27.45
2019-04-16T11:33:06.515Z,23.20
2019-04-16T11:35:39.298Z,31.05
2019-04-16T11:38:12.437Z,34.13
2019-04-16T11:40:47.629Z,29.42
2019-04-16T11:43:20.499Z,34.53
2019-04-16T11:45:54.356Z,41.70
2019-04-16T11:48:28.310Z,41.50
2019-04-16T11:51:01.228Z,32.20
2019-04-16T11:56:10.439Z,45.28
2019-04-16T11:58:44.440Z,38.53
2019-04-16T12:01:18.643Z,57.75
2019-04-16T12:03:56.700Z,35.52
2019-04-16T12:06:50.811Z,38.83
2019-04-16T12:09:43.267Z,34.58
2019-04-16T12:12:20.157Z,39.70
2019-04-16T12:15:03.610Z,33.02
2019-04-16T12:17:50.806Z,28.23
2019-04-16T12:20:47.295Z,39.90
2019-04-16T12:23:30.970Z,38.00
2019-04-16T12:26:15.673Z,43.83
2019-04-16T12:28:56.746Z,40.55
2019-04-16T12:31:44.053Z,37.73
2019-04-16T12:34:18.709Z,36.20
2019-04-16T12:37:10.954Z,32.40
2019-04-16T12:39:48.200Z,33.00
2019-04-16T12:42:22.324Z,36.48
2019-04-16T12:44:56.128Z,41.15
2019-04-16T12:47:36.354Z,34.45
2019-04-16T12:50:10.719Z,34.80
2019-04-16T12:53:01.503Z,44.33
2019-04-16T12:55:39.434Z,49.77
2019-04-16T12:58:25.890Z,59.33
2019-04-16T13:01:02.676Z,50.00
2019-04-16T13:03:37.958Z,53.85
2019-04-16T13:06:30.765Z,46.53
2019-04-16T13:09:25.480Z,59.18
2019-04-16T13:15:00.910Z,51.70
2019-04-16T13:17:34.447Z,66.47
2019-04-16T13:20:09.598Z,73.72
2019-04-16T13:23:01.001Z,71.00
2019-04-16T13:25:35.302Z,64.97
2019-04-16T13:28:08.959Z,60.03
2019-04-16T13:30:41.800Z,78.05
2019-04-16T13:33:14.427Z,71.33
2019-04-16T13:35:46.822Z,64.93
2019-04-16T13:38:20.570Z,71.65
2019-04-16T13:40:54.176Z,65.30
2019-04-16T13:43:28.297Z,80.62
2019-04-16T13:46:00.957Z,68.67
2019-04-16T13:48:37.674Z,59.93
2019-04-16T13:51:14.908Z,59.73
2019-04-16T13:54:03.493Z,57.90
2019-04-16T13:56:43.553Z,55.12
2019-04-16T13:59:17.547Z,57.43
2019-04-16T14:02:07.499Z,63.92
2019-04-16T14:04:40.294Z,49.77
2019-04-16T14:07:12.520Z,53.73
2019-04-16T14:09:46.068Z,53.20
2019-04-16T14:12:24.503Z,64.80
2019-04-16T14:14:52.604Z,58.83
2019-04-16T14:17:26.450Z,48.02
2019-04-16T14:19:59.257Z,48.30
2019-04-16T14:22:31.870Z,45.70
2019-04-16T14:25:06.382Z,41.60
2019-04-16T14:27:40.055Z,49.63
2019-04-16T14:30:17.883Z,52.40
2019-04-16T14:32:50.754Z,43.05
2019-04-16T14:35:33.505Z,40.30
2019-04-16T14:38:04.202Z,37.23
2019-04-16T14:40:39.638Z,32.95
2019-04-16T14:43:12.773Z,39.58
2019-04-16T14:45:59.245Z,35.92
2019-04-16T14:48:29.301Z,38.15
2019-04-16T14:51:03.398Z,45.00
2019-04-16T14:53:40.851Z,44.58
2019-04-16T14:56:15.791Z,43.42
2019-04-16T14:58:55.425Z,43.65
2019-04-16T15:01:48.213Z,46.13
2019-04-16T15:04:40.206Z,40.43
2019-04-16T15:07:22.782Z,43.38
2019-04-16T15:11:20.120Z,43.20
2019-04-16T15:19:37.985Z,57.03
2019-04-16T15:22:20.906Z,64.45
2019-04-16T15:27:44.762Z,71.82
2019-04-16T15:30:36.225Z,72.27
2019-04-16T15:33:26.874Z,70.27
2019-04-16T15:36:17.709Z,84.47
2019-04-16T15:39:02.902Z,74.75
2019-04-16T15:41:38.313Z,82.70
2019-04-16T15:45:18.909Z,78.15
2019-04-16T15:47:52.424Z,84.45
2019-04-16T15:54:52.407Z,84.13
2019-04-16T15:56:53.759Z,89.85
2019-04-16T15:59:49.671Z,86.65
2019-04-16T16:02:39.855Z,78.78
2019-04-16T16:05:17.583Z,79.95
2019-04-16T16:07:56.017Z,75.47
2019-04-16T16:10:29.048Z,71.10
2019-04-16T16:13:01.514Z,76.95
2019-04-16T16:15:34.183Z,73.15
2019-04-16T16:18:06.678Z,69.80
2019-04-16T16:20:38.978Z,68.15
2019-04-16T16:23:19.274Z,69.27
2019-04-16T16:26:03.952Z,62.98
2019-04-16T16:28:32.006Z,61.60
2019-04-16T16:31:04.595Z,69.87
2019-04-16T16:33:36.928Z,66.10
2019-04-16T16:36:09.318Z,67.47
2019-04-16T16:38:56.520Z,65.08
2019-04-16T16:41:37.456Z,63.35
2019-04-16T16:45:25.862Z,60.08
2019-04-16T16:47:17.979Z,70.87
2019-04-16T16:50:07.526Z,58.17
2019-04-16T16:52:43.496Z,57.48
2019-04-16T16:55:17.622Z,62.35
2019-04-16T16:57:52.341Z,65.90
2019-04-16T17:00:47.370Z,64.55
2019-04-16T17:03:36.463Z,62.90
2019-04-16T17:06:05.208Z,65.03
2019-04-16T17:08:40.884Z,66.90
2019-04-16T17:11:16.749Z,61.55
2019-04-16T17:13:47.152Z,59.03
2019-04-16T17:16:19.523Z,53.85
2019-04-16T17:18:52.178Z,63.98
2019-04-16T17:21:24.504Z,50.20
2019-04-16T17:23:57.177Z,57.43
2019-04-16T17:29:01.432Z,58.13
2019-04-16T17:31:36.039Z,56.53
2019-04-16T17:34:08.768Z,54.10
2019-04-16T17:39:14.374Z,64.22
2019-04-16T17:41:57.806Z,64.92
2019-04-16T17:44:35.861Z,64.03
2019-04-16T17:47:10.181Z,70.95
2019-04-16T17:49:44.005Z,56.53
2019-04-16T17:52:20.369Z,49.93
2019-04-16T17:54:57.452Z,52.65
2019-04-16T17:57:31.489Z,62.30
2019-04-16T18:00:21.399Z,56.10
2019-04-16T18:03:04.681Z,57.30
2019-04-16T18:05:41.897Z,68.60
2019-04-16T18:08:31.941Z,71.25
2019-04-16T18:11:12.416Z,70.83
2019-04-16T18:13:46.004Z,73.17
2019-04-16T18:16:20.549Z,79.75
2019-04-16T18:19:00.468Z,90.35
2019-04-16T18:21:34.147Z,84.62
2019-04-16T18:24:17.087Z,92.92
2019-04-16T18:26:50.816Z,121.72
2019-04-16T18:29:33.727Z,121.13
2019-04-16T18:32:16.909Z,137.97
2019-04-16T18:34:50.493Z,131.78
2019-04-16T18:37:39.748Z,159.27
2019-04-16T18:40:29.487Z,156.67
2019-04-16T18:43:06.958Z,147.13
2019-04-16T18:45:40.573Z,148.17
2019-04-16T18:48:14.522Z,137.97
2019-04-16T18:50:46.637Z,145.25
2019-04-16T18:53:19.284Z,152.32
2019-04-16T18:55:51.494Z,150.70
2019-04-16T18:58:25.232Z,149.40
2019-04-16T19:00:58.844Z,149.50
2019-04-16T19:03:31.463Z,161.52
2019-04-16T19:06:04.208Z,158.63
2019-04-16T19:08:42.132Z,158.82
2019-04-16T19:11:10.684Z,159.65
2019-04-16T19:13:43.349Z,171.30
2019-04-16T19:16:15.674Z,177.43
2019-04-16T19:18:48.004Z,182.40
2019-04-16T19:21:20.715Z,181.37
2019-04-16T19:23:53.789Z,177.22
2019-04-16T19:28:58.204Z,192.57
2019-04-16T19:31:31.005Z,189.80
2019-04-16T19:34:08.369Z,165.43
2019-04-16T19:36:37.285Z,180.90
2019-04-16T19:39:13.790Z,178.80
2019-04-16T19:41:43.607Z,168.75
2019-04-16T19:44:16.375Z,167.60
2019-04-16T19:46:52.638Z,169.43
2019-04-16T19:49:23.409Z,173.68
2019-04-16T19:51:55.741Z,169.22
2019-04-16T19:54:31.491Z,174.07
2019-04-16T19:57:02.115Z,166.22
2019-04-16T19:59:34.452Z,161.20
2019-04-16T20:02:08.437Z,153.03
2019-04-16T20:04:41.365Z,163.50
2019-04-16T20:07:14.584Z,171.30
2019-04-16T20:09:47.239Z,158.12
2019-04-16T20:12:19.436Z,159.00
2019-04-16T20:14:52.156Z,159.65
2019-04-16T20:17:24.283Z,168.53
2019-04-16T20:20:01.042Z,158.68
2019-04-16T20:22:36.577Z,154.15
2019-04-16T20:25:09.764Z,164.47
2019-04-16T20:27:42.342Z,163.37
2019-04-16T20:30:15.966Z,169.93
2019-04-16T20:32:48.628Z,161.77
2019-04-16T20:35:21.838Z,169.07
2019-04-16T20:40:27.295Z,156.93
2019-04-16T20:42:59.683Z,168.57
2019-04-16T20:45:32.533Z,167.82
2019-04-16T20:48:04.904Z,167.00
2019-04-16T20:50:37.592Z,162.80
2019-04-16T20:53:09.859Z,161.62
2019-04-16T20:55:47.076Z,173.02
2019-04-16T20:58:18.858Z,170.02
2019-04-16T21:00:52.604Z,164.52
2019-04-16T21:03:24.823Z,169.70
2019-04-16T21:05:59.678Z,162.30
2019-04-16T21:08:31.403Z,158.93
2019-04-16T21:11:07.361Z,171.00
2019-04-16T21:13:37.188Z,165.70
2019-04-16T21:16:10.015Z,174.47
2019-04-16T21:18:42.232Z,174.25
2019-04-16T21:21:15.293Z,174.15
2019-04-16T21:23:47.392Z,169.37
2019-04-16T21:26:20.275Z,165.37
2019-04-16T21:29:02.110Z,174.18
2019-04-16T21:31:43.921Z,166.32
2019-04-16T21:34:24.262Z,173.00
2019-04-16T21:37:09.293Z,171.77
2019-04-16T21:39:42.843Z,170.85
2019-04-16T21:42:15.706Z,158.57
2019-04-16T21:44:47.977Z,166.82
2019-04-16T21:47:23.626Z,169.47
2019-04-16T21:49:54.749Z,174.35
2019-04-16T21:52:27.234Z,178.02
2019-04-16T21:55:03.014Z,184.17
2019-04-16T21:57:34.179Z,190.25
2019-04-16T22:00:12.031Z,170.30
2019-04-16T22:02:47.223Z,180.60
2019-04-16T22:05:19.924Z,171.37
2019-04-16T22:07:53.640Z,171.00
2019-04-16T22:10:25.790Z,162.92
2019-04-16T22:12:58.184Z,171.67
2019-04-16T22:15:30.729Z,166.00
2019-04-16T22:18:07.582Z,171.68
2019-04-16T22:20:36.874Z,174.23
2019-04-16T22:23:09.489Z,171.37
2019-04-16T22:25:42.255Z,168.33
2019-04-16T22:28:15.374Z,171.47
2019-04-16T22:30:51.202Z,162.15
2019-04-16T22:33:22.653Z,171.28
2019-04-16T22:35:55.081Z,160.55
2019-04-16T22:38:29.314Z,160.93
2019-04-16T22:41:03.343Z,158.57
2019-04-16T22:43:53.533Z,160.22
2019-04-16T22:46:30.288Z,152.55
2019-04-16T22:49:03.148Z,151.07
2019-04-16T22:51:35.513Z,149.55
2019-04-16T22:54:07.895Z,159.82
2019-04-16T22:57:01.982Z,155.43
2019-04-16T22:59:31.756Z,162.05
2019-04-16T23:02:05.418Z,143.68
2019-04-16T23:04:38.017Z,133.90
2019-04-16T23:07:11.992Z,142.43
2019-04-16T23:09:45.728Z,148.28
2019-04-16T23:12:20.874Z,146.65
2019-04-16T23:14:53.439Z,140.28
2019-04-16T23:17:27.080Z,122.13
2019-04-16T23:19:59.618Z,114.82
2019-04-16T23:22:33.316Z,126.90
2019-04-16T23:27:37.582Z,117.13
2019-04-16T23:30:10.862Z,114.20
2019-04-16T23:32:43.579Z,114.92
2019-04-16T23:35:16.901Z,114.65
2019-04-16T23:40:20.719Z,106.07
2019-04-16T23:42:55.901Z,112.55
2019-04-16T23:45:38.902Z,100.35
2019-04-16T23:48:29.116Z,108.70
2019-04-16T23:51:04.408Z,114.40
2019-04-16T23:53:39.052Z,111.10
2019-04-16T23:56:23.457Z,104.55
2019-04-16T23:59:06.565Z,105.90
